Time;durP1;ratioP1;P1;durP2;ratioP2;P2;SDS_P1;SDS_P2;PMS_P1;PMS_P2;Temp;Humidity;BMP_temperature;BMP_pressure;BME280_temperature;BME280_humidity;BME280_pressure;Samples;Min_cycle;Max_cycle;Signal;HPM_P1;HPM_P2
2022/12/21 00:01:30;;;;;;;97.50;37.27;;;;;;;-141.97;91.53;47815.09;5032030;28;20188;-79
2022/12/21 00:03:59;;;;;;;84.00;31.73;;;;;;;-141.97;91.62;47832.38;5031813;28;20189;-79
2022/12/21 00:06:27;;;;;;;95.25;36.13;;;;;;;-141.97;91.59;47838.16;5031930;28;20190;-80
2022/12/21 00:08:55;;;;;;;91.15;35.95;;;;;;;-141.97;91.55;47842.00;5032265;28;20244;-80
2022/12/21 00:11:23;;;;;;;94.70;37.58;;;;;;;-141.97;91.72;47863.13;5032100;28;20555;-79
2022/12/21 00:13:50;;;;;;;93.47;36.38;;;;;;;-141.97;91.98;47845.84;5031723;28;20173;-80
2022/12/21 00:16:18;;;;;;;95.50;36.40;;;;;;;-141.97;91.62;47830.47;5031715;28;20561;-79
2022/12/21 00:18:44;;;;;;;83.88;33.80;;;;;;;-141.97;91.88;47826.63;5031417;28;20301;-79
2022/12/21 00:21:14;;;;;;;66.57;27.30;;;;;;;-141.97;91.54;47855.44;5031534;28;20257;-81
2022/12/21 00:23:44;;;;;;;78.43;32.60;;;;;;;-141.97;91.13;47861.22;5031619;28;20153;-80
2022/12/21 00:26:11;;;;;;;86.65;33.33;;;;;;;-141.97;90.77;47843.91;5031510;28;20174;-80
2022/12/21 00:28:37;;;;;;;84.45;33.20;;;;;;;-141.97;90.88;47803.56;5031655;28;20240;-80
2022/12/21 00:31:08;;;;;;;87.73;34.90;;;;;;;-141.97;91.19;47817.00;5031135;28;20262;-80
2022/12/21 00:33:35;;;;;;;84.40;33.63;;;;;;;-141.97;91.54;47828.53;5013948;28;20169;-80
2022/12/21 00:36:01;;;;;;;92.25;35.70;;;;;;;-141.97;91.51;47832.38;5031623;28;20162;-80
2022/12/21 00:38:27;;;;;;;83.60;32.67;;;;;;;-141.97;91.35;47830.47;5031750;28;20218;-80
2022/12/21 00:41:02;;;;;;;112.43;38.40;;;;;;;-141.97;91.19;47845.84;5031631;28;20242;-81
2022/12/21 00:43:28;;;;;;;111.63;40.47;;;;;;;-141.97;91.17;47851.59;5031698;28;20617;-81
2022/12/21 00:45:53;;;;;;;102.22;39.85;;;;;;;-141.97;90.39;47842.00;5031684;28;20166;-79
2022/12/21 00:48:19;;;;;;;96.03;38.37;;;;;;;-141.97;90.32;47818.94;5031302;28;20186;-80
2022/12/21 00:50:44;;;;;;;102.10;38.67;;;;;;;-141.97;90.21;47820.84;5031810;28;20194;-79
2022/12/21 00:53:09;;;;;;;94.97;38.60;;;;;;;-141.97;90.61;47855.44;5031652;28;20479;-80
2022/12/21 00:55:35;;;;;;;110.30;40.57;;;;;;;-141.97;90.20;47830.47;5031295;28;20648;-80
2022/12/21 00:58:01;;;;;;;130.27;46.83;;;;;;;-141.97;89.75;47815.09;5030907;28;20205;-80
2022/12/21 01:00:27;;;;;;;103.30;38.20;;;;;;;-141.97;89.88;47842.00;5031125;28;20553;-80
2022/12/21 01:02:53;;;;;;;120.90;43.00;;;;;;;-141.97;89.92;47820.84;5030829;28;20170;-80
2022/12/21 01:05:18;;;;;;;108.80;40.03;;;;;;;-141.97;89.55;47849.69;5030910;28;20173;-80
2022/12/21 01:07:43;;;;;;;97.30;37.20;;;;;;;-141.97;89.32;47843.91;5031014;28;20193;-80
2022/12/21 01:10:10;;;;;;;100.73;38.73;;;;;;;-141.97;89.90;47832.38;5030714;28;20166;-80
2022/12/21 01:12:35;;;;;;;98.82;37.65;;;;;;;-141.97;90.45;47826.63;5031667;28;20171;-80
2022/12/21 01:15:01;;;;;;;102.63;39.07;;;;;;;-141.97;90.51;47847.75;5041454;28;20173;-80
2022/12/21 01:17:26;;;;;;;265.67;85.33;;;;;;;-141.97;90.42;47822.78;5044121;28;20212;-80
2022/12/21 01:19:51;;;;;;;172.93;58.30;;;;;;;-141.97;90.44;47861.22;5041399;28;20174;-80
2022/12/21 01:22:17;;;;;;;99.23;39.07;;;;;;;-141.97;90.30;47884.28;5040706;28;20170;-80
2022/12/21 01:24:42;;;;;;;100.63;37.90;;;;;;;-141.97;90.54;47807.41;5035709;28;20606;-80
2022/12/21 01:27:08;;;;;;;96.90;37.40;;;;;;;-141.97;90.54;47842.00;5036509;28;20197;-80
2022/12/21 01:29:33;;;;;;;84.17;34.33;;;;;;;-141.97;90.45;47849.69;5035766;28;20166;-80
2022/12/21 01:31:58;;;;;;;85.03;34.50;;;;;;;-141.97;90.21;47815.09;5038086;28;20154;-80
2022/12/21 01:34:24;;;;;;;90.00;33.93;;;;;;;-141.97;90.78;47795.88;5042449;28;20177;-80
2022/12/21 01:36:49;;;;;;;88.77;35.27;;;;;;;-141.97;91.58;47824.69;5041809;28;20226;-80
2022/12/21 01:39:15;;;;;;;95.70;34.73;;;;;;;-141.97;91.67;47845.84;5041672;28;20193;-79
2022/12/21 01:41:40;;;;;;;86.93;33.40;;;;;;;-141.97;91.54;47845.84;5050608;28;20230;-79
2022/12/21 01:44:43;;;;;;;87.17;34.37;;;;;;;-141.97;91.29;47866.97;5046686;28;20190;-80
2022/12/21 01:47:14;;;;;;;87.35;32.88;;;;;;;-141.97;90.71;47828.53;5035731;28;20658;-79
2022/12/21 01:49:40;;;;;;;90.00;34.30;;;;;;;-141.97;90.57;47834.31;5034707;28;20609;-80
2022/12/21 01:52:11;;;;;;;89.00;34.25;;;;;;;-141.97;90.50;47838.16;5034669;28;20248;-80
2022/12/21 01:54:40;;;;;;;86.70;32.70;;;;;;;-141.97;90.28;47845.84;5034292;28;20175;-79
2022/12/21 01:57:10;;;;;;;90.43;34.92;;;;;;;-141.97;90.45;47811.25;5033978;28;20162;-80
2022/12/21 01:59:45;;;;;;;91.70;35.45;;;;;;;-141.97;90.54;47913.13;5034074;28;20635;-79
2022/12/21 02:02:23;;;;;;;85.68;35.28;;;;;;;-141.97;90.49;47818.94;5050465;28;20179;-80
2022/12/21 02:04:52;;;;;;;88.55;35.50;;;;;;;-141.97;90.55;47842.00;5053660;28;20170;-80
2022/12/21 02:07:20;;;;;;;85.10;35.45;;;;;;;-141.97;90.74;47811.25;5036190;28;20572;-80
2022/12/21 02:09:46;;;;;;;91.63;36.03;;;;;;;-141.97;90.94;47807.41;5054014;28;20671;-80
2022/12/21 02:12:15;;;;;;;107.15;38.25;;;;;;;-141.97;90.87;47838.16;5054280;28;20542;-80
2022/12/21 02:14:45;;;;;;;108.65;37.58;;;;;;;-141.97;90.76;47818.94;5054073;28;20165;-80
2022/12/21 02:17:19;;;;;;;84.63;35.40;;;;;;;-141.97;91.00;47830.47;5053798;28;20618;-80
2022/12/21 02:20:12;;;;;;;91.28;34.85;;;;;;;-141.97;91.92;47811.25;5053766;28;20179;-80
2022/12/21 02:23:15;;;;;;;77.22;28.80;;;;;;;-141.97;92.12;47818.94;5035978;28;20173;-80
2022/12/21 02:26:08;;;;;;;84.50;32.13;;;;;;;-141.97;92.93;47843.91;5053438;28;20655;-80
2022/12/21 02:29:01;;;;;;;83.45;32.35;;;;;;;-141.97;93.08;47776.63;5014033;28;20171;-80
2022/12/21 02:31:26;;;;;;;83.10;32.50;;;;;;;-141.97;93.48;47826.63;5013521;28;20162;-80
2022/12/21 02:34:09;;;;;;;82.10;33.43;;;;;;;-141.97;94.19;47834.31;5013918;28;20522;-80
2022/12/21 02:36:44;;;;;;;95.70;34.63;;;;;;;-141.97;94.07;47811.25;5013581;28;20195;-80
2022/12/21 02:39:31;;;;;;;82.13;31.67;;;;;;;-141.97;94.21;47803.56;5013853;28;20245;-80
2022/12/21 02:42:06;;;;;;;72.07;29.60;;;;;;;-141.97;93.78;47822.78;5013642;28;20305;-80
2022/12/21 02:44:55;;;;;;;65.63;24.42;;;;;;;-141.97;93.50;47811.25;5013715;28;20169;-80
2022/12/21 02:47:42;;;;;;;73.00;26.90;;;;;;;-141.97;93.48;47857.38;5013396;28;20170;-80
2022/12/21 02:50:12;;;;;;;66.78;25.60;;;;;;;-141.97;94.19;47815.09;5013729;28;20193;-80
2022/12/21 02:52:43;;;;;;;64.45;23.35;;;;;;;-141.97;94.43;47817.00;4995373;28;20190;-80
2022/12/21 02:55:11;;;;;;;63.08;24.05;;;;;;;-141.97;94.79;47799.72;5013445;28;20170;-80
2022/12/21 02:57:39;;;;;;;54.72;22.67;;;;;;;-141.97;94.76;47857.38;5013371;28;20228;-80
2022/12/21 03:00:12;;;;;;;69.18;26.17;;;;;;;-141.97;94.68;47815.09;5013242;28;20159;-80
2022/12/21 03:02:37;;;;;;;57.08;24.63;;;;;;;-141.97;94.26;47845.84;5013300;28;20543;-80
2022/12/21 03:05:27;;;;;;;59.20;23.87;;;;;;;-141.97;94.34;47813.16;5013063;28;20171;-80
2022/12/21 03:08:14;;;;;;;53.28;21.10;;;;;;;-141.97;93.90;47790.09;5013170;28;20155;-80
2022/12/21 03:11:03;;;;;;;67.43;26.77;;;;;;;-141.97;93.49;47817.00;5013445;28;20240;-80
2022/12/21 03:13:53;;;;;;;66.97;26.05;;;;;;;-141.97;93.14;47853.53;5012266;28;20198;-80
2022/12/21 03:16:29;;;;;;;65.60;26.38;;;;;;;-141.97;93.14;47818.94;5012899;28;20170;-80
2022/12/21 03:19:52;;;;;;;67.25;26.25;;;;;;;-141.97;92.79;47826.63;5013138;28;20558;-80
2022/12/21 03:22:37;;;;;;;58.90;25.17;;;;;;;-141.97;92.73;47838.16;4952849;29;20175;-80
2022/12/21 03:25:05;;;;;;;60.08;25.92;;;;;;;-141.97;93.07;47815.09;4952166;29;20581;-80
2022/12/21 03:27:35;;;;;;;61.05;24.95;;;;;;;-141.97;92.56;47834.31;4952092;29;20255;-80
2022/12/21 03:30:06;;;;;;;70.22;26.70;;;;;;;-141.97;92.35;47818.94;4952355;29;20676;-80
2022/12/21 03:32:43;;;;;;;64.75;26.17;;;;;;;-141.97;92.74;47807.41;4952125;29;20189;-80
2022/12/21 03:35:33;;;;;;;64.65;26.52;;;;;;;-141.97;92.91;47799.72;4952219;29;20172;-80
2022/12/21 03:38:02;;;;;;;66.35;26.42;;;;;;;-141.97;92.81;47845.84;4951825;29;20299;-80
2022/12/21 03:40:32;;;;;;;64.35;26.27;;;;;;;-141.97;92.75;47818.94;4951981;29;20188;-79
2022/12/21 03:43:33;;;;;;;68.47;28.65;;;;;;;-141.97;92.45;47853.53;4951990;29;20185;-79
2022/12/21 03:46:05;;;;;;;55.40;23.60;;;;;;;-141.97;92.00;47809.31;4876403;29;20247;-80
2022/12/21 03:48:48;;;;;;;64.97;25.75;;;;;;;-141.97;92.47;47826.63;4876130;29;20175;-80
2022/12/21 03:51:23;;;;;;;61.45;23.88;;;;;;;-141.97;92.13;47868.91;4876282;29;20289;-80
2022/12/21 03:54:05;;;;;;;58.95;24.13;;;;;;;-141.97;91.75;47895.81;4922607;29;20275;-80
2022/12/21 03:56:34;;;;;;;58.95;24.42;;;;;;;-141.97;91.88;47842.00;4932651;29;20243;-80
2022/12/21 03:59:00;;;;;;;61.63;24.80;;;;;;;-141.97;92.02;47813.16;4932553;29;20169;-80
2022/12/21 04:02:11;;;;;;;56.88;23.50;;;;;;;-141.97;91.52;47818.94;4932418;29;20257;-79
2022/12/21 04:04:46;;;;;;;48.72;20.98;;;;;;;-141.97;91.37;47838.16;4875433;29;20191;-80
2022/12/21 04:07:15;;;;;;;54.47;23.15;;;;;;;-141.97;90.79;47843.91;4877665;29;20567;-80
2022/12/21 04:09:41;;;;;;;72.38;29.05;;;;;;;-141.97;90.49;47807.41;4877379;29;20221;-82
2022/12/21 04:15:14;;;;;;;62.70;25.27;;;;;;;-141.97;91.75;47803.56;4875612;29;20456;-80
2022/12/21 04:17:42;;;;;;;59.55;24.13;;;;;;;-141.97;91.26;47849.69;4875774;29;20687;-80
2022/12/21 04:20:14;;;;;;;57.78;24.75;;;;;;;-141.97;91.20;47803.56;4875702;29;20203;-80
2022/12/21 04:28:26;;;;;;;88.30;34.42;;;;;;;-141.97;90.58;47813.16;4913227;29;20277;-80
2022/12/21 04:30:51;;;;;;;76.95;32.63;;;;;;;-141.97;90.81;47836.22;4912938;29;20182;-80
2022/12/21 04:33:19;;;;;;;105.97;43.90;;;;;;;-141.97;90.71;47826.63;4913154;29;20578;-80
2022/12/21 04:38:32;;;;;;;103.28;39.67;;;;;;;-141.97;91.63;47834.31;4912976;29;20241;-79
2022/12/21 04:40:58;;;;;;;103.15;39.38;;;;;;;-141.97;92.22;47834.31;4925348;29;20188;-80
2022/12/21 04:43:24;;;;;;;77.33;30.73;;;;;;;-141.97;92.45;47840.06;4951504;29;20260;-80
2022/12/21 04:46:08;;;;;;;76.30;30.48;;;;;;;-141.97;92.91;47822.78;4979363;28;20191;-80
2022/12/21 04:48:35;;;;;;;88.50;34.03;;;;;;;-141.97;92.91;47822.78;5011833;28;20202;-80
2022/12/21 04:51:05;;;;;;;82.28;31.40;;;;;;;-141.97;93.41;47817.00;5011498;28;20177;-79
2022/12/21 04:53:31;;;;;;;93.47;36.58;;;;;;;-141.97;93.44;47849.69;5011690;28;20170;-80
2022/12/21 04:55:56;;;;;;;104.67;43.33;;;;;;;-141.97;93.09;47840.06;5017808;28;20173;-80
2022/12/21 04:58:21;;;;;;;120.47;46.17;;;;;;;-141.97;93.29;47872.75;5032845;28;20218;-80
2022/12/21 05:00:47;;;;;;;201.10;70.30;;;;;;;-141.97;93.36;47817.00;5027214;28;20211;-80
2022/12/21 05:03:12;;;;;;;344.33;107.07;;;;;;;-141.97;92.62;47849.69;5024940;28;20182;-80
2022/12/21 05:05:37;;;;;;;154.27;52.37;;;;;;;-141.97;92.27;47843.91;5022217;28;20618;-80
2022/12/21 05:08:03;;;;;;;237.77;78.53;;;;;;;-141.97;91.89;47820.84;4986978;28;20221;-80
2022/12/21 05:10:29;;;;;;;251.20;84.07;;;;;;;-141.97;92.06;47817.00;5028710;28;20194;-80
2022/12/21 05:12:54;;;;;;;214.70;72.40;;;;;;;-141.97;91.78;47811.25;5031077;28;20646;-80
2022/12/21 05:15:19;;;;;;;156.83;54.20;;;;;;;-141.97;91.76;47876.59;5037635;28;20209;-80
2022/12/21 05:17:45;;;;;;;120.53;44.17;;;;;;;-141.97;91.83;47838.16;5042098;28;20217;-80
2022/12/21 05:20:10;;;;;;;79.53;33.07;;;;;;;-141.97;92.45;47809.31;5029607;28;20201;-80
2022/12/21 05:22:36;;;;;;;94.93;38.97;;;;;;;-141.97;93.35;47843.91;5013768;28;20194;-80
2022/12/21 05:25:01;;;;;;;146.93;56.77;;;;;;;-141.97;93.94;47824.69;5013592;28;20221;-80
2022/12/21 05:27:26;;;;;;;107.70;43.53;;;;;;;-141.97;93.89;47786.25;5045794;28;20610;-80
2022/12/21 05:29:52;;;;;;;118.00;47.87;;;;;;;-141.97;93.84;47834.31;5042751;28;20193;-80
2022/12/21 05:32:17;;;;;;;80.70;31.57;;;;;;;-141.97;93.31;47818.94;5014485;28;20190;-79
2022/12/21 05:34:42;;;;;;;93.40;37.30;;;;;;;-141.97;94.31;47853.53;5032118;28;20186;-80
2022/12/21 05:37:08;;;;;;;75.43;29.20;;;;;;;-141.97;93.89;47842.00;5031685;28;20229;-80
2022/12/21 05:39:34;;;;;;;67.37;26.83;;;;;;;-141.97;93.25;47807.41;5031230;28;20646;-79
2022/12/21 05:42:01;;;;;;;84.77;33.63;;;;;;;-141.97;93.12;47824.69;5032182;28;20190;-80
2022/12/21 05:44:27;;;;;;;103.93;41.88;;;;;;;-141.97;93.11;47851.59;5031344;28;20217;-80
2022/12/21 05:46:52;;;;;;;116.80;40.90;;;;;;;-141.97;93.19;47822.78;5031548;28;20670;-80
2022/12/21 05:49:18;;;;;;;85.33;34.47;;;;;;;-141.97;92.82;47818.94;5032084;28;20190;-80
2022/12/21 05:51:46;;;;;;;78.20;31.47;;;;;;;-141.97;92.77;47792.03;5031261;28;20230;-80
2022/12/21 05:54:12;;;;;;;76.78;31.73;;;;;;;-141.97;92.60;47799.72;5031444;28;20879;-80
2022/12/21 05:56:37;;;;;;;65.63;26.33;;;;;;;-141.97;91.68;47832.38;5031581;28;20212;-79
2022/12/21 05:59:02;;;;;;;73.30;30.23;;;;;;;-141.97;91.46;47822.78;5030916;28;20178;-80
2022/12/21 06:01:28;;;;;;;68.20;26.27;;;;;;;-141.97;91.30;47820.84;5013007;28;20646;-79
2022/12/21 06:03:53;;;;;;;64.00;25.37;;;;;;;-141.97;90.85;47826.63;5015978;28;20182;-80
2022/12/21 06:06:18;;;;;;;106.37;39.20;;;;;;;-141.97;90.81;47809.31;5012034;28;20260;-80
2022/12/21 06:08:44;;;;;;;72.33;29.43;;;;;;;-141.97;90.50;47849.69;5000632;28;20609;-80
2022/12/21 06:11:14;;;;;;;118.97;40.37;;;;;;;-141.97;90.46;47840.06;5029805;28;20191;-80
2022/12/21 06:13:40;;;;;;;99.72;37.03;;;;;;;-141.97;90.50;47830.47;5013932;28;20872;-80
2022/12/21 06:16:08;;;;;;;80.43;30.20;;;;;;;-141.97;90.67;47826.63;5016995;28;20269;-80
2022/12/21 06:18:34;;;;;;;95.55;36.90;;;;;;;-141.97;90.05;47847.75;5011571;28;20289;-80
2022/12/21 06:21:00;;;;;;;64.75;23.13;;;;;;;-141.97;89.21;47818.94;5011382;28;20183;-80
2022/12/21 06:23:25;;;;;;;52.53;21.87;;;;;;;-141.97;89.29;47824.69;5011615;28;20835;-80
2022/12/21 06:25:55;;;;;;;68.87;25.30;;;;;;;-141.97;88.45;47872.75;5015310;28;20234;-79
2022/12/21 06:28:22;;;;;;;88.13;37.28;;;;;;;-141.97;86.17;47838.16;5042553;28;20186;-80
2022/12/21 06:30:47;;;;;;;87.40;35.80;;;;;;;-141.97;82.40;47868.91;5043282;28;20218;-80
2022/12/21 06:33:13;;;;;;;70.07;27.40;;;;;;;-141.97;79.96;47840.06;5031402;28;20634;-80
2022/12/21 06:35:38;;;;;;;108.60;39.70;;;;;;;-141.97;77.03;47807.41;5033133;28;20182;-80
2022/12/21 06:38:03;;;;;;;59.40;24.50;;;;;;;-141.97;75.92;47861.22;5032076;28;20236;-80
2022/12/21 06:40:29;;;;;;;76.83;31.97;;;;;;;-141.97;76.60;47861.22;5031168;28;20225;-81
2022/12/21 06:42:54;;;;;;;85.17;37.53;;;;;;;-141.97;77.54;47847.75;5032218;28;20638;-80
2022/12/21 06:45:19;;;;;;;110.57;43.40;;;;;;;-141.97;77.73;47834.31;5031537;28;20192;-80
2022/12/21 06:47:45;;;;;;;100.27;42.97;;;;;;;-141.97;78.39;47822.78;5013503;28;20197;-81
2022/12/21 06:50:10;;;;;;;87.00;37.57;;;;;;;-141.97;79.63;47849.69;5030986;28;20193;-81
2022/12/21 06:52:36;;;;;;;148.00;47.40;;;;;;;-141.97;80.91;47859.28;5030929;28;20182;-80
2022/12/21 06:55:01;;;;;;;124.17;43.27;;;;;;;-141.97;82.55;47834.31;5030754;28;20181;-80
2022/12/21 06:57:27;;;;;;;118.00;38.47;;;;;;;-141.97;78.71;47843.91;5030806;28;20728;-79
2022/12/21 06:59:52;;;;;;;79.63;32.97;;;;;;;-141.97;69.73;47849.69;5031580;28;20213;-80
2022/12/21 07:02:17;;;;;;;59.83;23.63;;;;;;;-141.97;65.67;47845.84;5029932;28;20186;-80
2022/12/21 07:04:43;;;;;;;72.03;27.90;;;;;;;-141.97;62.91;47872.75;5017174;28;20195;-79
2022/12/21 07:07:08;;;;;;;59.13;25.77;;;;;;;-141.97;62.73;47861.22;5010668;28;20625;-80
2022/12/21 07:09:33;;;;;;;60.00;25.70;;;;;;;-141.97;61.58;47840.06;5001029;28;20234;-80
2022/12/21 07:11:59;;;;;;;52.83;20.47;;;;;;;-141.97;61.78;47866.97;5010261;28;20583;-80
2022/12/21 07:14:24;;;;;;;55.90;22.83;;;;;;;-141.97;63.45;47853.53;5010684;28;20190;-80
2022/12/21 07:16:50;;;;;;;59.30;24.43;;;;;;;-141.97;64.25;47845.84;5009637;28;20202;-80
2022/12/21 07:19:15;;;;;;;64.20;27.03;;;;;;;-141.97;60.79;47926.56;5009843;28;20186;-80
2022/12/21 07:21:41;;;;;;;72.17;32.30;;;;;;;-141.97;57.77;47857.38;5009436;28;20253;-80
2022/12/21 07:24:06;;;;;;;72.87;30.80;;;;;;;-141.97;57.71;47863.13;5009575;28;20186;-80
2022/12/21 07:26:32;;;;;;;69.27;31.00;;;;;;;-141.97;58.73;47878.53;5010403;28;20272;-79
2022/12/21 07:28:57;;;;;;;47.83;21.80;;;;;;;-141.97;65.60;47826.63;5010113;28;20650;-81
2022/12/21 07:31:25;;;;;;;49.53;22.97;;;;;;;-141.97;70.82;47826.63;5009469;28;20178;-80
2022/12/21 07:33:51;;;;;;;52.37;22.23;;;;;;;-141.97;74.67;47818.94;5010671;28;20591;-80
2022/12/21 07:36:16;;;;;;;49.47;23.87;;;;;;;-141.97;76.43;47820.84;5010518;28;20460;-80
2022/12/21 07:38:42;;;;;;;104.57;47.40;;;;;;;-141.97;76.19;47838.16;5009466;28;20985;-79
2022/12/21 07:41:11;;;;;;;52.03;23.73;;;;;;;-141.97;76.58;47853.53;5008815;28;20651;-79
2022/12/21 07:43:37;;;;;;;93.27;37.13;;;;;;;-141.97;78.19;47815.09;5009789;28;20183;-80
2022/12/21 07:46:03;;;;;;;65.23;27.63;;;;;;;-141.97;79.09;47795.88;5009025;28;20438;-80
2022/12/21 07:48:30;;;;;;;49.90;21.43;;;;;;;-141.97;78.21;47857.38;5010004;28;20433;-79
2022/12/21 07:50:55;;;;;;;56.23;24.43;;;;;;;-141.97;78.87;47838.16;5010227;28;20444;-80
2022/12/21 07:53:21;;;;;;;67.47;30.17;;;;;;;-141.97;77.74;47813.16;5009251;28;20442;-80
2022/12/21 07:55:47;;;;;;;69.07;29.90;;;;;;;-141.97;76.55;47863.13;5009248;28;20182;-80
2022/12/21 07:58:12;;;;;;;109.27;43.03;;;;;;;-141.97;75.51;47815.09;5009564;28;20209;-80
2022/12/21 08:00:39;;;;;;;96.67;41.40;;;;;;;-141.97;74.17;47834.31;5006896;28;20441;-80
2022/12/21 08:03:05;;;;;;;67.17;30.93;;;;;;;-141.97;73.30;47863.13;5007994;28;20244;-80
2022/12/21 08:05:30;;;;;;;59.00;26.83;;;;;;;-141.97;72.46;47830.47;5049638;28;20435;-81
2022/12/21 08:07:57;;;;;;;62.87;29.80;;;;;;;-141.97;73.04;47834.31;5038787;28;20217;-80
2022/12/21 08:10:23;;;;;;;65.20;27.77;;;;;;;-141.97;71.83;47838.16;5046429;28;20688;-80
2022/12/21 08:12:48;;;;;;;54.93;26.03;;;;;;;-141.97;71.22;47857.38;5029416;28;20470;-83
2022/12/21 08:15:14;;;;;;;45.70;19.30;;;;;;;-141.97;71.35;47822.78;5029158;28;20216;-83
2022/12/21 08:17:39;;;;;;;47.43;21.07;;;;;;;-141.97;71.07;47872.75;5029080;28;20209;-83
2022/12/21 08:20:06;;;;;;;112.00;45.90;;;;;;;-141.97;70.09;47834.31;5028435;28;20269;-83
2022/12/21 08:22:32;;;;;;;103.17;41.37;;;;;;;-141.97;69.40;47882.38;5013488;28;20607;-82
2022/12/21 08:24:58;;;;;;;89.17;38.57;;;;;;;-141.97;68.99;47840.06;5009280;28;20425;-83
2022/12/21 08:27:23;;;;;;;120.93;50.17;;;;;;;-141.97;67.49;47859.28;5009583;28;20452;-81
2022/12/21 08:29:49;;;;;;;67.53;35.20;;;;;;;-141.97;67.96;47861.22;5008658;28;20206;-83
2022/12/21 08:32:14;;;;;;;75.90;35.50;;;;;;;-141.97;66.87;47820.84;5008886;28;20175;-82
2022/12/21 08:34:40;;;;;;;72.53;33.20;;;;;;;-141.97;67.58;47807.41;5016302;28;20182;-82
2022/12/21 08:37:05;;;;;;;91.17;42.90;;;;;;;-141.97;67.14;47857.38;5020273;28;20230;-83
2022/12/21 08:39:31;;;;;;;56.93;26.83;;;;;;;-141.97;65.94;47861.22;5020630;28;20186;-85
2022/12/21 08:41:56;;;;;;;44.57;21.80;;;;;;;-141.97;64.69;47857.38;5024539;28;20190;-82
2022/12/21 08:44:21;;;;;;;37.60;18.47;;;;;;;-141.97;63.84;47842.00;5013007;28;20194;-84
2022/12/21 08:46:47;;;;;;;45.57;21.90;;;;;;;-141.97;63.21;47843.91;5011359;28;20179;-83
2022/12/21 08:49:12;;;;;;;41.03;20.17;;;;;;;-141.97;63.37;47822.78;5027944;28;20230;-82
2022/12/21 08:51:39;;;;;;;40.73;19.27;;;;;;;-141.97;61.68;47801.63;5031047;28;20182;-84
2022/12/21 08:54:07;;;;;;;37.53;18.10;;;;;;;-141.97;61.39;47865.06;5043706;28;20261;-83
2022/12/21 08:56:34;;;;;;;47.23;19.70;;;;;;;-141.97;62.45;47851.59;5046485;28;20440;-83
2022/12/21 08:59:01;;;;;;;67.43;30.63;;;;;;;-141.97;60.61;47857.38;5040496;28;20448;-84
2022/12/21 09:01:26;;;;;;;49.37;24.33;;;;;;;-141.97;60.63;47857.38;5023951;28;20441;-85
2022/12/21 09:03:52;;;;;;;46.70;22.50;;;;;;;-141.97;62.69;47851.59;5028107;28;20434;-82
2022/12/21 09:06:17;;;;;;;44.30;21.73;;;;;;;-141.97;64.05;47872.75;5057109;28;20801;-81
2022/12/21 09:08:43;;;;;;;73.70;36.27;;;;;;;-141.97;62.84;47826.63;5046463;28;20366;-84
2022/12/21 09:11:11;;;;;;;67.37;30.70;;;;;;;-141.97;61.59;47834.31;5051886;28;20189;-82
2022/12/21 09:13:37;;;;;;;34.00;16.30;;;;;;;-141.97;62.57;47840.06;5033637;28;20185;-83
2022/12/21 09:16:10;;;;;;;44.67;21.73;;;;;;;-141.97;63.32;47870.81;5034751;28;21005;-84
2022/12/21 09:18:35;;;;;;;50.33;22.37;;;;;;;-141.97;62.55;47828.53;5034074;28;21081;-84
2022/12/21 09:21:01;;;;;;;53.23;24.83;;;;;;;-141.97;61.66;47853.53;5033530;28;20437;-84
2022/12/21 09:23:26;;;;;;;38.47;20.43;;;;;;;-141.97;60.96;47876.59;5033187;28;20306;-83
2022/12/21 09:25:51;;;;;;;40.87;20.13;;;;;;;-141.97;59.22;47851.59;5033538;28;20997;-85
2022/12/21 09:28:17;;;;;;;47.50;23.37;;;;;;;-141.97;59.42;47803.56;5033378;28;20189;-81
2022/12/21 09:30:42;;;;;;;67.97;27.10;;;;;;;-141.97;58.93;47838.16;5033609;28;20186;-83
2022/12/21 09:33:08;;;;;;;38.20;17.43;;;;;;;-141.97;57.88;47853.53;5033254;28;20294;-82
2022/12/21 09:35:38;;;;;;;39.13;18.87;;;;;;;-141.97;57.02;47884.28;5034731;28;20185;-80
2022/12/21 09:38:03;;;;;;;35.10;17.10;;;;;;;-141.97;56.42;47859.28;5034784;28;20697;-84
2022/12/21 09:40:30;;;;;;;35.97;18.27;;;;;;;-141.97;56.60;47811.25;5034259;28;20523;-83
2022/12/21 09:43:08;;;;;;;35.17;18.57;;;;;;;-141.97;55.48;47857.38;5033585;28;20186;-81
2022/12/21 09:45:54;;;;;;;34.77;18.23;;;;;;;-141.97;57.23;47822.78;5034236;28;20918;-82
2022/12/21 09:48:29;;;;;;;36.60;18.33;;;;;;;-141.97;57.82;47838.16;5034521;28;21128;-82
2022/12/21 09:51:00;;;;;;;54.10;24.87;;;;;;;-141.97;57.71;47842.00;5034370;28;20431;-81
2022/12/21 09:54:04;;;;;;;46.27;21.53;;;;;;;-141.97;57.63;47832.38;5014525;28;20422;-82
2022/12/21 09:56:31;;;;;;;41.03;18.70;;;;;;;-141.97;57.32;47842.00;4995102;28;21004;-81
2022/12/21 09:59:04;;;;;;;39.23;19.57;;;;;;;-141.97;55.79;47849.69;5012358;28;20475;-81
2022/12/21 10:01:30;;;;;;;48.03;21.83;;;;;;;-141.97;55.43;47849.69;5008751;28;20210;-81
2022/12/21 10:04:10;;;;;;;55.23;25.57;;;;;;;-141.97;55.09;47840.06;4995360;28;20191;-81
2022/12/21 10:07:06;;;;;;;45.30;22.57;;;;;;;-141.97;54.94;47826.63;5009376;28;20936;-82
2022/12/21 10:09:43;;;;;;;54.03;25.27;;;;;;;-141.97;53.53;47824.69;4997331;28;20234;-82
2022/12/21 10:12:33;;;;;;;46.70;21.00;;;;;;;-141.97;53.18;47843.91;4999929;28;20330;-81
2022/12/21 10:15:15;;;;;;;35.57;16.87;;;;;;;-141.97;53.88;47855.44;4973190;28;20237;-81
2022/12/21 10:18:18;;;;;;;33.53;17.90;;;;;;;-141.97;52.75;47832.38;4989139;28;20206;-82
2022/12/21 10:20:44;;;;;;;31.27;17.70;;;;;;;-141.97;53.01;47828.53;4989056;28;20195;-83
2022/12/21 10:23:33;;;;;;;38.33;18.10;;;;;;;-141.97;53.15;47834.31;4988661;28;20195;-82
2022/12/21 10:26:02;;;;;;;74.57;35.20;;;;;;;-141.97;52.21;47847.75;4989518;28;20570;-81
2022/12/21 10:28:45;;;;;;;31.50;16.67;;;;;;;-141.97;52.49;47838.16;4989112;28;20195;-82
2022/12/21 10:31:16;;;;;;;30.00;14.47;;;;;;;-141.97;51.06;47842.00;4989229;28;20334;-82
2022/12/21 10:33:43;;;;;;;40.97;20.20;;;;;;;-141.97;52.46;47838.16;5017732;28;20256;-83
2022/12/21 10:36:20;;;;;;;27.37;13.67;;;;;;;-141.97;52.48;47817.00;5030501;28;20224;-82
2022/12/21 10:38:46;;;;;;;31.50;15.37;;;;;;;-141.97;52.61;47817.00;5012134;28;20454;-82
2022/12/21 10:41:19;;;;;;;35.87;17.73;;;;;;;-141.97;51.81;47834.31;5030354;28;20188;-82
2022/12/21 10:43:48;;;;;;;37.63;16.80;;;;;;;-141.97;51.72;47830.47;5030006;28;20185;-83
2022/12/21 10:46:18;;;;;;;23.93;11.50;;;;;;;-141.97;51.14;47820.84;5031362;28;20206;-81
2022/12/21 10:48:46;;;;;;;25.77;13.77;;;;;;;-141.97;51.41;47817.00;5030712;28;20193;-82
2022/12/21 10:51:26;;;;;;;22.07;11.87;;;;;;;-141.97;51.27;47855.44;5030331;28;20190;-83
2022/12/21 10:54:02;;;;;;;34.83;19.60;;;;;;;-141.97;51.73;47807.41;5030325;28;20212;-85
2022/12/21 10:56:31;;;;;;;33.27;19.47;;;;;;;-141.97;52.35;47805.47;5030137;28;20210;-82
2022/12/21 10:59:05;;;;;;;43.30;26.83;;;;;;;-141.97;51.29;47880.44;5012345;28;20191;-81
2022/12/21 11:01:33;;;;;;;37.67;23.17;;;;;;;-141.97;51.93;47828.53;5008465;28;20205;-81
2022/12/21 11:04:06;;;;;;;29.63;15.77;;;;;;;-141.97;52.25;47815.09;5026269;28;20262;-82
2022/12/21 11:06:32;;;;;;;33.37;16.30;;;;;;;-141.97;52.29;47838.16;5048921;28;20188;-81
2022/12/21 11:08:57;;;;;;;25.80;13.10;;;;;;;-141.97;51.89;47853.53;5037706;28;20229;-83
2022/12/21 11:11:30;;;;;;;13.53;7.67;;;;;;;-141.97;53.04;47842.00;5029021;28;20185;-82
2022/12/21 11:14:15;;;;;;;18.33;9.50;;;;;;;-141.97;53.27;47826.63;5029165;28;20239;-85
2022/12/21 11:16:42;;;;;;;39.27;20.37;;;;;;;-141.97;52.38;47872.75;5030416;28;20269;-85
2022/12/21 11:19:12;;;;;;;34.20;17.33;;;;;;;-141.97;53.18;47830.47;5031239;28;20240;-83
2022/12/21 11:21:54;;;;;;;32.30;17.43;;;;;;;-141.97;52.29;47851.59;5035992;28;20273;-86
2022/12/21 11:24:33;;;;;;;25.87;14.17;;;;;;;-141.97;52.72;47811.25;5031166;28;20893;-83